sensor_id;sensor_type;location;lat;lon;timestamp;P1;durP1;ratioP1;P2;durP2;ratioP2
49131;SDS011;35149;51.196;6.204;2022-07-29T00:01:42;2.90;;;0.80;;
49131;SDS011;35149;51.196;6.204;2022-07-29T00:04:14;1.33;;;0.93;;
49131;SDS011;35149;51.196;6.204;2022-07-29T00:06:45;1.27;;;1.13;;
49131;SDS011;35149;51.196;6.204;2022-07-29T00:09:14;1.95;;;0.80;;
49131;SDS011;35149;51.196;6.204;2022-07-29T00:11:41;3.80;;;1.05;;
49131;SDS011;35149;51.196;6.204;2022-07-29T00:14:12;1.48;;;1.25;;
49131;SDS011;35149;51.196;6.204;2022-07-29T00:16:42;1.80;;;1.00;;
49131;SDS011;35149;51.196;6.204;2022-07-29T00:19:09;1.20;;;1.00;;
49131;SDS011;35149;51.196;6.204;2022-07-29T00:21:38;2.95;;;1.17;;
49131;SDS011;35149;51.196;6.204;2022-07-29T00:24:05;2.05;;;0.90;;
49131;SDS011;35149;51.196;6.204;2022-07-29T00:26:34;2.88;;;1.02;;
49131;SDS011;35149;51.196;6.204;2022-07-29T00:29:02;1.50;;;1.10;;
49131;SDS011;35149;51.196;6.204;2022-07-29T00:31:50;1.80;;;0.90;;
49131;SDS011;35149;51.196;6.204;2022-07-29T00:34:19;1.70;;;1.17;;
49131;SDS011;35149;51.196;6.204;2022-07-29T00:37:07;3.78;;;1.17;;
49131;SDS011;35149;51.196;6.204;2022-07-29T00:39:33;2.50;;;1.20;;
49131;SDS011;35149;51.196;6.204;2022-07-29T00:42:03;1.20;;;1.10;;
49131;SDS011;35149;51.196;6.204;2022-07-29T00:44:30;5.30;;;1.23;;
49131;SDS011;35149;51.196;6.204;2022-07-29T00:49:33;1.55;;;0.88;;
49131;SDS011;35149;51.196;6.204;2022-07-29T00:52:10;3.20;;;1.17;;
49131;SDS011;35149;51.196;6.204;2022-07-29T00:54:39;2.25;;;1.17;;
49131;SDS011;35149;51.196;6.204;2022-07-29T00:57:10;2.47;;;1.08;;
49131;SDS011;35149;51.196;6.204;2022-07-29T00:59:37;3.58;;;2.00;;
49131;SDS011;35149;51.196;6.204;2022-07-29T01:02:06;5.57;;;1.38;;
49131;SDS011;35149;51.196;6.204;2022-07-29T01:04:34;3.00;;;1.65;;
49131;SDS011;35149;51.196;6.204;2022-07-29T01:07:05;2.75;;;1.25;;
49131;SDS011;35149;51.196;6.204;2022-07-29T01:09:40;4.55;;;1.00;;
49131;SDS011;35149;51.196;6.204;2022-07-29T01:12:21;2.17;;;1.10;;
49131;SDS011;35149;51.196;6.204;2022-07-29T01:14:50;2.20;;;0.90;;
49131;SDS011;35149;51.196;6.204;2022-07-29T01:17:21;3.83;;;1.33;;
49131;SDS011;35149;51.196;6.204;2022-07-29T01:19:55;1.55;;;0.98;;
49131;SDS011;35149;51.196;6.204;2022-07-29T01:22:53;2.17;;;1.10;;
49131;SDS011;35149;51.196;6.204;2022-07-29T01:31:10;4.28;;;1.13;;
49131;SDS011;35149;51.196;6.204;2022-07-29T01:36:59;2.88;;;1.38;;
49131;SDS011;35149;51.196;6.204;2022-07-29T01:39:34;1.35;;;0.70;;
49131;SDS011;35149;51.196;6.204;2022-07-29T01:42:07;4.20;;;1.48;;
49131;SDS011;35149;51.196;6.204;2022-07-29T01:47:44;4.05;;;1.00;;
49131;SDS011;35149;51.196;6.204;2022-07-29T01:50:19;2.25;;;0.90;;
49131;SDS011;35149;51.196;6.204;2022-07-29T01:52:49;1.75;;;1.00;;
49131;SDS011;35149;51.196;6.204;2022-07-29T01:55:22;2.72;;;1.05;;
49131;SDS011;35149;51.196;6.204;2022-07-29T01:57:56;1.92;;;0.85;;
49131;SDS011;35149;51.196;6.204;2022-07-29T02:00:26;2.50;;;1.20;;
49131;SDS011;35149;51.196;6.204;2022-07-29T02:02:54;3.72;;;1.23;;
49131;SDS011;35149;51.196;6.204;2022-07-29T02:05:22;1.98;;;0.93;;
49131;SDS011;35149;51.196;6.204;2022-07-29T02:07:53;2.15;;;0.98;;
49131;SDS011;35149;51.196;6.204;2022-07-29T02:10:22;4.15;;;1.17;;
49131;SDS011;35149;51.196;6.204;2022-07-29T02:12:55;2.05;;;0.95;;
49131;SDS011;35149;51.196;6.204;2022-07-29T02:15:30;3.50;;;1.10;;
49131;SDS011;35149;51.196;6.204;2022-07-29T02:18:02;1.85;;;1.20;;
49131;SDS011;35149;51.196;6.204;2022-07-29T02:20:33;2.83;;;1.42;;
49131;SDS011;35149;51.196;6.204;2022-07-29T02:23:00;3.42;;;1.10;;
49131;SDS011;35149;51.196;6.204;2022-07-29T02:25:29;1.98;;;1.20;;
49131;SDS011;35149;51.196;6.204;2022-07-29T02:28:06;4.25;;;0.95;;
49131;SDS011;35149;51.196;6.204;2022-07-29T02:33:12;4.20;;;1.65;;
49131;SDS011;35149;51.196;6.204;2022-07-29T02:35:42;3.63;;;1.33;;
49131;SDS011;35149;51.196;6.204;2022-07-29T02:38:15;9.27;;;3.03;;
49131;SDS011;35149;51.196;6.204;2022-07-29T02:41:09;8.60;;;2.95;;
49131;SDS011;35149;51.196;6.204;2022-07-29T02:43:38;6.45;;;1.55;;
49131;SDS011;35149;51.196;6.204;2022-07-29T02:46:11;7.05;;;2.38;;
49131;SDS011;35149;51.196;6.204;2022-07-29T02:49:10;5.70;;;1.98;;
49131;SDS011;35149;51.196;6.204;2022-07-29T02:51:46;3.10;;;1.55;;
49131;SDS011;35149;51.196;6.204;2022-07-29T02:54:37;3.70;;;1.50;;
49131;SDS011;35149;51.196;6.204;2022-07-29T02:57:14;3.00;;;1.60;;
49131;SDS011;35149;51.196;6.204;2022-07-29T03:00:21;2.67;;;1.15;;
49131;SDS011;35149;51.196;6.204;2022-07-29T03:02:56;2.15;;;1.45;;
49131;SDS011;35149;51.196;6.204;2022-07-29T03:05:25;2.80;;;1.42;;
49131;SDS011;35149;51.196;6.204;2022-07-29T03:08:03;4.45;;;1.90;;
49131;SDS011;35149;51.196;6.204;2022-07-29T03:10:31;2.20;;;1.30;;
49131;SDS011;35149;51.196;6.204;2022-07-29T03:13:03;3.20;;;1.42;;
49131;SDS011;35149;51.196;6.204;2022-07-29T03:15:33;2.10;;;1.38;;
49131;SDS011;35149;51.196;6.204;2022-07-29T03:18:04;3.80;;;1.40;;
49131;SDS011;35149;51.196;6.204;2022-07-29T03:20:33;3.30;;;1.38;;
49131;SDS011;35149;51.196;6.204;2022-07-29T03:23:00;4.35;;;1.52;;
49131;SDS011;35149;51.196;6.204;2022-07-29T03:25:29;3.28;;;1.45;;
49131;SDS011;35149;51.196;6.204;2022-07-29T03:27:59;3.33;;;1.50;;
49131;SDS011;35149;51.196;6.204;2022-07-29T03:30:28;2.80;;;1.52;;
49131;SDS011;35149;51.196;6.204;2022-07-29T03:32:57;2.90;;;1.40;;
49131;SDS011;35149;51.196;6.204;2022-07-29T03:35:27;4.15;;;1.90;;
49131;SDS011;35149;51.196;6.204;2022-07-29T03:38:00;3.92;;;1.70;;
49131;SDS011;35149;51.196;6.204;2022-07-29T03:40:30;2.90;;;1.40;;
49131;SDS011;35149;51.196;6.204;2022-07-29T03:43:10;2.45;;;1.50;;
49131;SDS011;35149;51.196;6.204;2022-07-29T03:45:42;2.67;;;2.25;;
49131;SDS011;35149;51.196;6.204;2022-07-29T03:48:11;1.73;;;1.42;;
49131;SDS011;35149;51.196;6.204;2022-07-29T03:50:42;2.38;;;1.52;;
49131;SDS011;35149;51.196;6.204;2022-07-29T03:53:12;5.15;;;1.55;;
49131;SDS011;35149;51.196;6.204;2022-07-29T03:55:43;2.78;;;1.83;;
49131;SDS011;35149;51.196;6.204;2022-07-29T03:58:14;2.47;;;1.67;;
49131;SDS011;35149;51.196;6.204;2022-07-29T04:00:42;1.98;;;1.85;;
49131;SDS011;35149;51.196;6.204;2022-07-29T04:03:10;2.20;;;1.70;;
49131;SDS011;35149;51.196;6.204;2022-07-29T04:05:37;2.50;;;1.60;;
49131;SDS011;35149;51.196;6.204;2022-07-29T04:08:04;3.85;;;1.85;;
49131;SDS011;35149;51.196;6.204;2022-07-29T04:10:36;5.28;;;1.88;;
49131;SDS011;35149;51.196;6.204;2022-07-29T04:13:13;4.65;;;2.15;;
49131;SDS011;35149;51.196;6.204;2022-07-29T04:15:40;2.25;;;1.83;;
49131;SDS011;35149;51.196;6.204;2022-07-29T04:18:10;4.10;;;1.88;;
49131;SDS011;35149;51.196;6.204;2022-07-29T04:20:39;4.03;;;1.92;;
49131;SDS011;35149;51.196;6.204;2022-07-29T04:23:08;4.43;;;2.23;;
49131;SDS011;35149;51.196;6.204;2022-07-29T04:25:38;4.05;;;2.38;;
49131;SDS011;35149;51.196;6.204;2022-07-29T04:28:15;2.15;;;1.92;;
49131;SDS011;35149;51.196;6.204;2022-07-29T04:30:42;5.30;;;2.10;;
49131;SDS011;35149;51.196;6.204;2022-07-29T04:33:11;4.15;;;1.83;;
49131;SDS011;35149;51.196;6.204;2022-07-29T04:35:38;3.97;;;1.75;;
49131;SDS011;35149;51.196;6.204;2022-07-29T04:38:15;2.70;;;1.80;;
49131;SDS011;35149;51.196;6.204;2022-07-29T04:40:44;4.70;;;2.88;;
49131;SDS011;35149;51.196;6.204;2022-07-29T04:43:12;3.45;;;1.80;;
49131;SDS011;35149;51.196;6.204;2022-07-29T04:45:41;5.35;;;2.10;;
49131;SDS011;35149;51.196;6.204;2022-07-29T04:48:08;3.33;;;1.65;;
49131;SDS011;35149;51.196;6.204;2022-07-29T04:50:37;4.90;;;2.45;;
49131;SDS011;35149;51.196;6.204;2022-07-29T04:53:05;2.97;;;1.70;;
49131;SDS011;35149;51.196;6.204;2022-07-29T04:55:32;3.60;;;1.90;;
49131;SDS011;35149;51.196;6.204;2022-07-29T04:57:59;9.02;;;2.13;;
49131;SDS011;35149;51.196;6.204;2022-07-29T05:00:27;5.43;;;2.33;;
49131;SDS011;35149;51.196;6.204;2022-07-29T05:02:59;3.55;;;1.92;;
49131;SDS011;35149;51.196;6.204;2022-07-29T05:05:25;2.60;;;2.00;;
49131;SDS011;35149;51.196;6.204;2022-07-29T05:07:52;2.00;;;1.65;;
49131;SDS011;35149;51.196;6.204;2022-07-29T05:10:19;4.68;;;2.35;;
49131;SDS011;35149;51.196;6.204;2022-07-29T05:12:46;6.00;;;1.95;;
49131;SDS011;35149;51.196;6.204;2022-07-29T05:15:13;3.38;;;1.80;;
49131;SDS011;35149;51.196;6.204;2022-07-29T05:17:39;3.15;;;1.80;;
49131;SDS011;35149;51.196;6.204;2022-07-29T05:20:06;2.88;;;1.60;;
49131;SDS011;35149;51.196;6.204;2022-07-29T05:22:33;4.10;;;2.15;;
49131;SDS011;35149;51.196;6.204;2022-07-29T05:25:00;4.10;;;2.35;;
49131;SDS011;35149;51.196;6.204;2022-07-29T05:27:34;3.50;;;1.88;;
49131;SDS011;35149;51.196;6.204;2022-07-29T05:30:02;5.75;;;2.13;;
49131;SDS011;35149;51.196;6.204;2022-07-29T05:32:29;3.28;;;2.97;;
49131;SDS011;35149;51.196;6.204;2022-07-29T05:34:55;2.03;;;1.80;;
49131;SDS011;35149;51.196;6.204;2022-07-29T05:37:22;2.17;;;1.77;;
49131;SDS011;35149;51.196;6.204;2022-07-29T05:39:49;2.50;;;1.83;;
49131;SDS011;35149;51.196;6.204;2022-07-29T05:42:22;2.13;;;2.00;;
49131;SDS011;35149;51.196;6.204;2022-07-29T05:44:50;2.25;;;1.50;;
49131;SDS011;35149;51.196;6.204;2022-07-29T05:47:17;2.67;;;1.70;;
49131;SDS011;35149;51.196;6.204;2022-07-29T05:49:44;3.60;;;1.70;;
49131;SDS011;35149;51.196;6.204;2022-07-29T05:52:11;2.53;;;1.45;;
49131;SDS011;35149;51.196;6.204;2022-07-29T05:54:39;2.60;;;1.48;;
49131;SDS011;35149;51.196;6.204;2022-07-29T05:57:06;4.65;;;2.30;;
49131;SDS011;35149;51.196;6.204;2022-07-29T05:59:36;3.10;;;2.00;;
49131;SDS011;35149;51.196;6.204;2022-07-29T06:02:03;1.55;;;1.45;;
49131;SDS011;35149;51.196;6.204;2022-07-29T06:04:31;2.53;;;2.30;;
49131;SDS011;35149;51.196;6.204;2022-07-29T06:06:58;2.75;;;2.00;;
49131;SDS011;35149;51.196;6.204;2022-07-29T06:09:25;2.22;;;1.90;;
49131;SDS011;35149;51.196;6.204;2022-07-29T06:11:52;2.75;;;1.67;;
49131;SDS011;35149;51.196;6.204;2022-07-29T06:14:19;2.28;;;2.08;;
49131;SDS011;35149;51.196;6.204;2022-07-29T06:16:45;3.13;;;1.90;;
49131;SDS011;35149;51.196;6.204;2022-07-29T06:19:12;1.70;;;1.60;;
49131;SDS011;35149;51.196;6.204;2022-07-29T06:21:42;1.60;;;1.50;;
49131;SDS011;35149;51.196;6.204;2022-07-29T06:24:12;2.50;;;2.28;;
49131;SDS011;35149;51.196;6.204;2022-07-29T06:26:41;5.22;;;2.05;;
49131;SDS011;35149;51.196;6.204;2022-07-29T06:29:09;2.10;;;1.80;;
49131;SDS011;35149;51.196;6.204;2022-07-29T06:31:37;2.08;;;1.88;;
49131;SDS011;35149;51.196;6.204;2022-07-29T06:34:04;2.38;;;2.00;;
49131;SDS011;35149;51.196;6.204;2022-07-29T06:36:33;2.85;;;1.90;;
49131;SDS011;35149;51.196;6.204;2022-07-29T06:39:06;3.35;;;2.30;;
49131;SDS011;35149;51.196;6.204;2022-07-29T06:41:34;3.03;;;2.35;;
49131;SDS011;35149;51.196;6.204;2022-07-29T06:44:08;2.65;;;1.98;;
49131;SDS011;35149;51.196;6.204;2022-07-29T06:46:35;3.50;;;2.08;;
49131;SDS011;35149;51.196;6.204;2022-07-29T06:49:02;2.30;;;2.10;;
49131;SDS011;35149;51.196;6.204;2022-07-29T06:51:30;4.93;;;2.10;;
49131;SDS011;35149;51.196;6.204;2022-07-29T06:53:56;3.30;;;2.08;;
49131;SDS011;35149;51.196;6.204;2022-07-29T06:56:28;2.50;;;1.75;;
49131;SDS011;35149;51.196;6.204;2022-07-29T06:58:56;3.30;;;2.50;;
49131;SDS011;35149;51.196;6.204;2022-07-29T07:01:23;2.15;;;1.95;;
49131;SDS011;35149;51.196;6.204;2022-07-29T07:03:50;2.97;;;2.15;;
49131;SDS011;35149;51.196;6.204;2022-07-29T07:06:17;2.53;;;2.33;;
49131;SDS011;35149;51.196;6.204;2022-07-29T07:08:44;6.97;;;2.85;;
49131;SDS011;35149;51.196;6.204;2022-07-29T07:11:11;2.15;;;1.98;;
49131;SDS011;35149;51.196;6.204;2022-07-29T07:13:38;2.30;;;1.92;;
49131;SDS011;35149;51.196;6.204;2022-07-29T07:16:05;2.80;;;2.25;;
49131;SDS011;35149;51.196;6.204;2022-07-29T07:18:31;4.78;;;2.88;;
49131;SDS011;35149;51.196;6.204;2022-07-29T07:20:58;3.13;;;2.55;;
49131;SDS011;35149;51.196;6.204;2022-07-29T07:23:25;3.10;;;2.22;;
49131;SDS011;35149;51.196;6.204;2022-07-29T07:25:52;4.05;;;2.30;;
49131;SDS011;35149;51.196;6.204;2022-07-29T07:28:19;4.28;;;2.70;;
49131;SDS011;35149;51.196;6.204;2022-07-29T07:30:50;3.45;;;2.10;;
49131;SDS011;35149;51.196;6.204;2022-07-29T07:33:17;2.88;;;2.05;;
49131;SDS011;35149;51.196;6.204;2022-07-29T07:35:44;7.78;;;3.42;;
49131;SDS011;35149;51.196;6.204;2022-07-29T07:38:11;3.50;;;2.92;;
49131;SDS011;35149;51.196;6.204;2022-07-29T07:40:39;4.18;;;2.38;;
49131;SDS011;35149;51.196;6.204;2022-07-29T07:43:06;3.08;;;2.47;;
49131;SDS011;35149;51.196;6.204;2022-07-29T07:45:33;3.13;;;2.00;;
49131;SDS011;35149;51.196;6.204;2022-07-29T07:48:02;3.95;;;2.53;;
49131;SDS011;35149;51.196;6.204;2022-07-29T07:50:32;7.75;;;2.60;;
49131;SDS011;35149;51.196;6.204;2022-07-29T07:52:59;5.50;;;2.65;;
49131;SDS011;35149;51.196;6.204;2022-07-29T07:55:28;4.22;;;3.25;;
49131;SDS011;35149;51.196;6.204;2022-07-29T07:58:14;5.32;;;2.97;;
49131;SDS011;35149;51.196;6.204;2022-07-29T08:00:41;5.03;;;3.08;;
49131;SDS011;35149;51.196;6.204;2022-07-29T08:03:08;3.53;;;2.78;;
49131;SDS011;35149;51.196;6.204;2022-07-29T08:05:42;2.85;;;2.38;;
49131;SDS011;35149;51.196;6.204;2022-07-29T08:08:09;5.13;;;3.08;;
49131;SDS011;35149;51.196;6.204;2022-07-29T08:10:36;3.83;;;3.00;;
49131;SDS011;35149;51.196;6.204;2022-07-29T08:13:22;5.75;;;3.00;;
49131;SDS011;35149;51.196;6.204;2022-07-29T08:15:58;2.90;;;2.42;;
49131;SDS011;35149;51.196;6.204;2022-07-29T08:18:37;5.85;;;3.38;;
49131;SDS011;35149;51.196;6.204;2022-07-29T08:21:05;4.22;;;2.78;;
49131;SDS011;35149;51.196;6.204;2022-07-29T08:23:32;6.25;;;2.70;;
49131;SDS011;35149;51.196;6.204;2022-07-29T08:26:14;5.63;;;2.47;;
49131;SDS011;35149;51.196;6.204;2022-07-29T08:28:41;4.88;;;3.10;;
49131;SDS011;35149;51.196;6.204;2022-07-29T08:31:12;5.20;;;2.90;;
49131;SDS011;35149;51.196;6.204;2022-07-29T08:33:39;5.05;;;3.47;;
49131;SDS011;35149;51.196;6.204;2022-07-29T08:36:05;3.38;;;2.85;;
49131;SDS011;35149;51.196;6.204;2022-07-29T08:38:33;3.97;;;2.63;;
49131;SDS011;35149;51.196;6.204;2022-07-29T08:41:00;3.85;;;2.58;;
49131;SDS011;35149;51.196;6.204;2022-07-29T08:43:28;4.75;;;2.92;;
49131;SDS011;35149;51.196;6.204;2022-07-29T08:45:55;7.82;;;4.13;;
49131;SDS011;35149;51.196;6.204;2022-07-29T08:48:22;4.13;;;3.67;;
49131;SDS011;35149;51.196;6.204;2022-07-29T08:50:54;4.43;;;3.25;;
49131;SDS011;35149;51.196;6.204;2022-07-29T08:53:22;3.90;;;2.75;;
49131;SDS011;35149;51.196;6.204;2022-07-29T08:55:52;4.43;;;2.95;;
49131;SDS011;35149;51.196;6.204;2022-07-29T08:58:19;4.10;;;3.05;;
49131;SDS011;35149;51.196;6.204;2022-07-29T09:00:51;4.07;;;2.95;;
49131;SDS011;35149;51.196;6.204;2022-07-29T09:03:22;3.15;;;2.85;;
49131;SDS011;35149;51.196;6.204;2022-07-29T09:05:50;5.28;;;3.25;;
49131;SDS011;35149;51.196;6.204;2022-07-29T09:08:22;4.60;;;3.00;;
49131;SDS011;35149;51.196;6.204;2022-07-29T09:10:49;3.42;;;2.85;;
49131;SDS011;35149;51.196;6.204;2022-07-29T09:13:17;3.83;;;3.42;;
49131;SDS011;35149;51.196;6.204;2022-07-29T09:15:44;6.60;;;3.17;;
49131;SDS011;35149;51.196;6.204;2022-07-29T09:18:11;5.82;;;3.08;;
49131;SDS011;35149;51.196;6.204;2022-07-29T09:20:55;3.38;;;2.67;;
49131;SDS011;35149;51.196;6.204;2022-07-29T09:23:40;5.03;;;3.30;;
49131;SDS011;35149;51.196;6.204;2022-07-29T09:26:28;4.63;;;3.25;;
49131;SDS011;35149;51.196;6.204;2022-07-29T09:28:56;5.63;;;3.70;;
49131;SDS011;35149;51.196;6.204;2022-07-29T09:31:34;5.18;;;2.95;;
49131;SDS011;35149;51.196;6.204;2022-07-29T09:34:02;3.72;;;2.83;;
49131;SDS011;35149;51.196;6.204;2022-07-29T09:36:29;3.60;;;2.67;;
49131;SDS011;35149;51.196;6.204;2022-07-29T09:38:59;4.97;;;3.10;;
49131;SDS011;35149;51.196;6.204;2022-07-29T09:41:27;6.57;;;3.05;;
49131;SDS011;35149;51.196;6.204;2022-07-29T09:43:58;8.07;;;3.33;;
49131;SDS011;35149;51.196;6.204;2022-07-29T09:46:25;5.90;;;2.83;;
49131;SDS011;35149;51.196;6.204;2022-07-29T09:49:08;4.80;;;2.97;;
49131;SDS011;35149;51.196;6.204;2022-07-29T09:51:37;4.07;;;2.63;;
49131;SDS011;35149;51.196;6.204;2022-07-29T09:56:50;3.95;;;2.83;;
49131;SDS011;35149;51.196;6.204;2022-07-29T09:59:16;3.50;;;2.80;;
49131;SDS011;35149;51.196;6.204;2022-07-29T10:01:45;6.50;;;3.08;;
49131;SDS011;35149;51.196;6.204;2022-07-29T10:04:12;5.63;;;2.72;;
49131;SDS011;35149;51.196;6.204;2022-07-29T10:06:55;3.55;;;2.72;;
49131;SDS011;35149;51.196;6.204;2022-07-29T10:09:29;4.68;;;2.35;;
49131;SDS011;35149;51.196;6.204;2022-07-29T10:12:03;2.85;;;2.10;;
49131;SDS011;35149;51.196;6.204;2022-07-29T10:14:37;5.03;;;2.53;;
49131;SDS011;35149;51.196;6.204;2022-07-29T10:17:05;4.20;;;2.90;;
49131;SDS011;35149;51.196;6.204;2022-07-29T10:19:33;6.43;;;3.45;;
49131;SDS011;35149;51.196;6.204;2022-07-29T10:22:02;5.95;;;3.03;;
49131;SDS011;35149;51.196;6.204;2022-07-29T10:24:31;4.28;;;3.03;;
49131;SDS011;35149;51.196;6.204;2022-07-29T10:26:59;4.78;;;3.35;;
49131;SDS011;35149;51.196;6.204;2022-07-29T10:29:28;5.50;;;3.53;;
49131;SDS011;35149;51.196;6.204;2022-07-29T10:34:34;3.22;;;2.92;;
49131;SDS011;35149;51.196;6.204;2022-07-29T10:40:25;3.88;;;2.63;;
49131;SDS011;35149;51.196;6.204;2022-07-29T10:43:24;3.95;;;2.97;;
49131;SDS011;35149;51.196;6.204;2022-07-29T10:45:56;5.90;;;3.20;;
49131;SDS011;35149;51.196;6.204;2022-07-29T10:48:24;3.80;;;2.80;;
49131;SDS011;35149;51.196;6.204;2022-07-29T10:50:52;4.53;;;2.95;;
49131;SDS011;35149;51.196;6.204;2022-07-29T10:53:22;4.53;;;3.05;;
49131;SDS011;35149;51.196;6.204;2022-07-29T10:55:51;4.82;;;3.10;;
49131;SDS011;35149;51.196;6.204;2022-07-29T11:00:47;3.78;;;3.47;;
49131;SDS011;35149;51.196;6.204;2022-07-29T11:06:22;5.40;;;3.05;;
49131;SDS011;35149;51.196;6.204;2022-07-29T11:11:45;5.03;;;3.15;;
49131;SDS011;35149;51.196;6.204;2022-07-29T11:14:17;5.10;;;2.90;;
49131;SDS011;35149;51.196;6.204;2022-07-29T11:16:58;2.92;;;2.60;;
49131;SDS011;35149;51.196;6.204;2022-07-29T11:19:25;5.30;;;3.67;;
49131;SDS011;35149;51.196;6.204;2022-07-29T11:21:56;3.45;;;3.15;;
49131;SDS011;35149;51.196;6.204;2022-07-29T11:24:30;5.05;;;3.30;;
49131;SDS011;35149;51.196;6.204;2022-07-29T11:29:55;5.60;;;3.50;;
49131;SDS011;35149;51.196;6.204;2022-07-29T11:32:35;4.68;;;3.53;;
49131;SDS011;35149;51.196;6.204;2022-07-29T11:35:15;3.67;;;3.38;;
49131;SDS011;35149;51.196;6.204;2022-07-29T11:38:24;4.43;;;3.22;;
49131;SDS011;35149;51.196;6.204;2022-07-29T11:43:49;3.63;;;2.85;;
49131;SDS011;35149;51.196;6.204;2022-07-29T11:49:13;3.58;;;3.28;;
49131;SDS011;35149;51.196;6.204;2022-07-29T11:52:09;12.93;;;4.28;;
49131;SDS011;35149;51.196;6.204;2022-07-29T11:54:37;5.68;;;3.67;;
49131;SDS011;35149;51.196;6.204;2022-07-29T11:57:25;3.90;;;2.80;;
49131;SDS011;35149;51.196;6.204;2022-07-29T12:00:05;8.13;;;3.63;;
49131;SDS011;35149;51.196;6.204;2022-07-29T12:02:38;6.40;;;3.53;;
49131;SDS011;35149;51.196;6.204;2022-07-29T12:05:09;5.40;;;3.10;;
49131;SDS011;35149;51.196;6.204;2022-07-29T12:07:37;3.75;;;3.22;;
49131;SDS011;35149;51.196;6.204;2022-07-29T12:10:10;5.10;;;2.83;;
49131;SDS011;35149;51.196;6.204;2022-07-29T12:12:51;5.20;;;3.22;;
49131;SDS011;35149;51.196;6.204;2022-07-29T12:15:19;4.47;;;3.28;;
49131;SDS011;35149;51.196;6.204;2022-07-29T12:17:47;6.32;;;3.25;;
49131;SDS011;35149;51.196;6.204;2022-07-29T12:20:21;6.07;;;3.33;;
49131;SDS011;35149;51.196;6.204;2022-07-29T12:22:50;4.07;;;3.03;;
49131;SDS011;35149;51.196;6.204;2022-07-29T12:25:19;4.68;;;3.35;;
49131;SDS011;35149;51.196;6.204;2022-07-29T12:28:04;2.88;;;2.67;;
49131;SDS011;35149;51.196;6.204;2022-07-29T12:33:11;3.63;;;3.03;;
49131;SDS011;35149;51.196;6.204;2022-07-29T12:35:38;3.78;;;3.40;;
49131;SDS011;35149;51.196;6.204;2022-07-29T12:38:05;7.40;;;4.10;;
49131;SDS011;35149;51.196;6.204;2022-07-29T12:40:32;3.00;;;2.70;;
49131;SDS011;35149;51.196;6.204;2022-07-29T12:43:10;3.38;;;2.53;;
49131;SDS011;35149;51.196;6.204;2022-07-29T12:45:46;3.25;;;2.40;;
49131;SDS011;35149;51.196;6.204;2022-07-29T12:48:16;4.20;;;2.63;;
49131;SDS011;35149;51.196;6.204;2022-07-29T12:51:06;4.50;;;2.63;;
49131;SDS011;35149;51.196;6.204;2022-07-29T12:53:35;4.00;;;2.58;;
49131;SDS011;35149;51.196;6.204;2022-07-29T12:56:03;2.95;;;2.40;;
49131;SDS011;35149;51.196;6.204;2022-07-29T12:58:50;3.35;;;3.03;;
49131;SDS011;35149;51.196;6.204;2022-07-29T13:01:18;3.17;;;2.70;;
49131;SDS011;35149;51.196;6.204;2022-07-29T13:03:50;2.75;;;2.53;;
49131;SDS011;35149;51.196;6.204;2022-07-29T13:06:30;3.63;;;2.85;;
49131;SDS011;35149;51.196;6.204;2022-07-29T13:09:00;3.97;;;2.50;;
49131;SDS011;35149;51.196;6.204;2022-07-29T13:11:29;2.65;;;2.45;;
49131;SDS011;35149;51.196;6.204;2022-07-29T13:13:59;2.92;;;2.58;;
49131;SDS011;35149;51.196;6.204;2022-07-29T13:16:32;3.40;;;2.78;;
49131;SDS011;35149;51.196;6.204;2022-07-29T13:19:03;3.88;;;2.97;;
49131;SDS011;35149;51.196;6.204;2022-07-29T13:21:31;5.68;;;3.63;;
49131;SDS011;35149;51.196;6.204;2022-07-29T13:23:58;3.15;;;2.88;;
49131;SDS011;35149;51.196;6.204;2022-07-29T13:26:24;3.17;;;2.80;;
49131;SDS011;35149;51.196;6.204;2022-07-29T13:28:51;3.30;;;2.83;;
49131;SDS011;35149;51.196;6.204;2022-07-29T13:31:20;4.78;;;2.15;;
49131;SDS011;35149;51.196;6.204;2022-07-29T13:33:48;4.03;;;2.38;;
49131;SDS011;35149;51.196;6.204;2022-07-29T13:36:15;3.67;;;2.40;;
49131;SDS011;35149;51.196;6.204;2022-07-29T13:38:41;3.00;;;2.20;;
49131;SDS011;35149;51.196;6.204;2022-07-29T13:41:08;2.97;;;2.53;;
49131;SDS011;35149;51.196;6.204;2022-07-29T13:43:35;2.75;;;2.13;;
49131;SDS011;35149;51.196;6.204;2022-07-29T13:46:02;3.88;;;1.85;;
49131;SDS011;35149;51.196;6.204;2022-07-29T13:48:29;2.17;;;1.85;;
49131;SDS011;35149;51.196;6.204;2022-07-29T13:50:56;2.47;;;2.28;;
49131;SDS011;35149;51.196;6.204;2022-07-29T13:53:22;2.20;;;1.67;;
49131;SDS011;35149;51.196;6.204;2022-07-29T13:55:52;2.28;;;1.67;;
49131;SDS011;35149;51.196;6.204;2022-07-29T13:58:19;2.20;;;2.00;;
49131;SDS011;35149;51.196;6.204;2022-07-29T14:00:46;3.47;;;1.77;;
49131;SDS011;35149;51.196;6.204;2022-07-29T14:03:15;2.08;;;1.42;;
49131;SDS011;35149;51.196;6.204;2022-07-29T14:05:42;1.90;;;1.27;;
49131;SDS011;35149;51.196;6.204;2022-07-29T14:08:10;1.20;;;1.10;;
49131;SDS011;35149;51.196;6.204;2022-07-29T14:10:36;1.88;;;1.67;;
49131;SDS011;35149;51.196;6.204;2022-07-29T14:13:03;2.03;;;1.40;;
49131;SDS011;35149;51.196;6.204;2022-07-29T14:15:30;1.98;;;1.20;;
49131;SDS011;35149;51.196;6.204;2022-07-29T14:17:57;1.52;;;1.40;;
49131;SDS011;35149;51.196;6.204;2022-07-29T14:20:23;1.95;;;1.05;;
49131;SDS011;35149;51.196;6.204;2022-07-29T14:22:50;3.47;;;1.63;;
49131;SDS011;35149;51.196;6.204;2022-07-29T14:25:19;3.20;;;1.17;;
49131;SDS011;35149;51.196;6.204;2022-07-29T14:27:48;0.85;;;0.85;;
49131;SDS011;35149;51.196;6.204;2022-07-29T14:30:15;3.15;;;1.27;;
49131;SDS011;35149;51.196;6.204;2022-07-29T14:32:42;1.20;;;1.10;;
49131;SDS011;35149;51.196;6.204;2022-07-29T14:35:09;1.15;;;0.93;;
49131;SDS011;35149;51.196;6.204;2022-07-29T14:37:35;2.33;;;1.13;;
49131;SDS011;35149;51.196;6.204;2022-07-29T14:40:06;1.95;;;1.23;;
49131;SDS011;35149;51.196;6.204;2022-07-29T14:42:33;1.95;;;1.70;;
49131;SDS011;35149;51.196;6.204;2022-07-29T14:45:00;2.22;;;1.42;;
49131;SDS011;35149;51.196;6.204;2022-07-29T14:47:27;1.20;;;1.08;;
49131;SDS011;35149;51.196;6.204;2022-07-29T14:49:53;2.92;;;1.10;;
49131;SDS011;35149;51.196;6.204;2022-07-29T14:52:20;2.40;;;1.30;;
49131;SDS011;35149;51.196;6.204;2022-07-29T14:54:47;2.78;;;1.27;;
49131;SDS011;35149;51.196;6.204;2022-07-29T14:57:14;1.73;;;1.20;;
49131;SDS011;35149;51.196;6.204;2022-07-29T14:59:40;1.95;;;1.55;;
49131;SDS011;35149;51.196;6.204;2022-07-29T15:02:07;3.42;;;1.48;;
49131;SDS011;35149;51.196;6.204;2022-07-29T15:04:34;1.35;;;1.25;;
49131;SDS011;35149;51.196;6.204;2022-07-29T15:07:01;1.85;;;1.35;;
49131;SDS011;35149;51.196;6.204;2022-07-29T15:09:28;2.00;;;1.30;;
49131;SDS011;35149;51.196;6.204;2022-07-29T15:11:55;2.75;;;1.20;;
49131;SDS011;35149;51.196;6.204;2022-07-29T15:14:22;1.65;;;1.30;;
49131;SDS011;35149;51.196;6.204;2022-07-29T15:16:49;1.73;;;1.30;;
49131;SDS011;35149;51.196;6.204;2022-07-29T15:19:18;2.17;;;1.33;;
49131;SDS011;35149;51.196;6.204;2022-07-29T15:21:45;1.30;;;1.17;;
49131;SDS011;35149;51.196;6.204;2022-07-29T15:24:14;1.65;;;1.05;;
49131;SDS011;35149;51.196;6.204;2022-07-29T15:26:42;1.30;;;1.02;;
49131;SDS011;35149;51.196;6.204;2022-07-29T15:29:09;1.63;;;1.35;;
49131;SDS011;35149;51.196;6.204;2022-07-29T15:31:36;1.65;;;1.40;;
49131;SDS011;35149;51.196;6.204;2022-07-29T15:34:03;1.60;;;1.50;;
49131;SDS011;35149;51.196;6.204;2022-07-29T15:36:31;1.40;;;1.30;;
49131;SDS011;35149;51.196;6.204;2022-07-29T15:39:17;1.48;;;1.25;;
49131;SDS011;35149;51.196;6.204;2022-07-29T15:41:44;2.17;;;1.33;;
49131;SDS011;35149;51.196;6.204;2022-07-29T15:44:12;1.50;;;1.40;;
49131;SDS011;35149;51.196;6.204;2022-07-29T15:46:38;1.45;;;1.27;;
49131;SDS011;35149;51.196;6.204;2022-07-29T15:49:27;1.20;;;1.10;;
49131;SDS011;35149;51.196;6.204;2022-07-29T15:52:17;2.25;;;1.30;;
49131;SDS011;35149;51.196;6.204;2022-07-29T15:54:51;2.95;;;1.73;;